sensor_id;sensor_type;location;lat;lon;timestamp;temperature;humidity
16521;DHT22;8373;48.110;11.522;2022-10-16T04:01:17;15.40;94.20
16521;DHT22;8373;48.110;11.522;2022-10-16T04:03:44;15.40;93.80
16521;DHT22;8373;48.110;11.522;2022-10-16T04:06:11;15.40;93.80
16521;DHT22;8373;48.110;11.522;2022-10-16T04:08:38;15.30;93.80
16521;DHT22;8373;48.110;11.522;2022-10-16T04:11:05;15.40;93.80
16521;DHT22;8373;48.110;11.522;2022-10-16T04:13:32;15.40;93.70
16521;DHT22;8373;48.110;11.522;2022-10-16T04:15:59;15.40;93.50
16521;DHT22;8373;48.110;11.522;2022-10-16T04:18:27;15.40;93.60
16521;DHT22;8373;48.110;11.522;2022-10-16T04:20:54;15.50;93.50
16521;DHT22;8373;48.110;11.522;2022-10-16T04:23:21;15.50;93.40
16521;DHT22;8373;48.110;11.522;2022-10-16T04:25:49;15.30;93.40
16521;DHT22;8373;48.110;11.522;2022-10-16T04:28:16;15.30;93.70
16521;DHT22;8373;48.110;11.522;2022-10-16T04:30:43;15.30;93.70
16521;DHT22;8373;48.110;11.522;2022-10-16T04:33:10;15.20;93.80
16521;DHT22;8373;48.110;11.522;2022-10-16T04:35:39;15.40;93.90
16521;DHT22;8373;48.110;11.522;2022-10-16T04:38:06;15.50;93.70
16521;DHT22;8373;48.110;11.522;2022-10-16T04:40:33;15.50;93.50
16521;DHT22;8373;48.110;11.522;2022-10-16T04:43:01;15.60;93.30
16521;DHT22;8373;48.110;11.522;2022-10-16T04:45:29;15.40;93.10
16521;DHT22;8373;48.110;11.522;2022-10-16T04:47:57;15.30;93.30
16521;DHT22;8373;48.110;11.522;2022-10-16T04:50:24;15.30;93.50
16521;DHT22;8373;48.110;11.522;2022-10-16T04:52:52;15.40;93.60
16521;DHT22;8373;48.110;11.522;2022-10-16T04:55:19;15.50;93.50
16521;DHT22;8373;48.110;11.522;2022-10-16T04:57:46;15.50;93.20
16521;DHT22;8373;48.110;11.522;2022-10-16T05:00:13;15.50;93.20
16521;DHT22;8373;48.110;11.522;2022-10-16T05:02:40;15.50;93.30
16521;DHT22;8373;48.110;11.522;2022-10-16T05:05:07;15.60;93.30
16521;DHT22;8373;48.110;11.522;2022-10-16T05:07:34;15.60;93.20
16521;DHT22;8373;48.110;11.522;2022-10-16T05:10:03;15.60;93.20
16521;DHT22;8373;48.110;11.522;2022-10-16T05:12:30;15.70;93.00
16521;DHT22;8373;48.110;11.522;2022-10-16T05:14:57;15.70;92.80
16521;DHT22;8373;48.110;11.522;2022-10-16T05:17:24;15.70;92.70
16521;DHT22;8373;48.110;11.522;2022-10-16T05:19:51;15.70;92.60
16521;DHT22;8373;48.110;11.522;2022-10-16T05:22:18;15.70;92.70
16521;DHT22;8373;48.110;11.522;2022-10-16T05:24:45;15.80;92.70
16521;DHT22;8373;48.110;11.522;2022-10-16T05:27:14;15.80;92.60
16521;DHT22;8373;48.110;11.522;2022-10-16T05:29:44;15.80;92.50
16521;DHT22;8373;48.110;11.522;2022-10-16T05:32:12;15.70;92.40
16521;DHT22;8373;48.110;11.522;2022-10-16T05:34:39;15.70;92.50
16521;DHT22;8373;48.110;11.522;2022-10-16T05:37:06;15.80;92.40
16521;DHT22;8373;48.110;11.522;2022-10-16T05:39:33;15.80;92.30
16521;DHT22;8373;48.110;11.522;2022-10-16T05:42:00;15.80;92.20
16521;DHT22;8373;48.110;11.522;2022-10-16T05:44:28;15.80;92.20
16521;DHT22;8373;48.110;11.522;2022-10-16T05:46:55;15.80;92.10
16521;DHT22;8373;48.110;11.522;2022-10-16T05:49:22;15.70;92.10
16521;DHT22;8373;48.110;11.522;2022-10-16T05:51:49;15.70;92.30
16521;DHT22;8373;48.110;11.522;2022-10-16T05:54:16;15.80;92.20
16521;DHT22;8373;48.110;11.522;2022-10-16T05:56:43;15.80;92.20
16521;DHT22;8373;48.110;11.522;2022-10-16T05:59:10;15.90;92.10
16521;DHT22;8373;48.110;11.522;2022-10-16T06:01:38;15.90;92.00
16521;DHT22;8373;48.110;11.522;2022-10-16T06:04:05;15.80;91.80
16521;DHT22;8373;48.110;11.522;2022-10-16T06:06:32;15.90;91.80
16521;DHT22;8373;48.110;11.522;2022-10-16T06:09:02;15.90;91.70
16521;DHT22;8373;48.110;11.522;2022-10-16T06:11:31;16.00;91.70
16521;DHT22;8373;48.110;11.522;2022-10-16T06:14:01;16.10;91.50
16521;DHT22;8373;48.110;11.522;2022-10-16T06:16:32;16.10;91.30
16521;DHT22;8373;48.110;11.522;2022-10-16T06:19:01;16.00;91.10
16521;DHT22;8373;48.110;11.522;2022-10-16T06:21:29;16.00;91.20
16521;DHT22;8373;48.110;11.522;2022-10-16T06:23:57;15.90;91.20
16521;DHT22;8373;48.110;11.522;2022-10-16T06:26:26;16.00;91.30
16521;DHT22;8373;48.110;11.522;2022-10-16T06:28:54;16.00;91.20
16521;DHT22;8373;48.110;11.522;2022-10-16T06:31:22;15.80;91.20
16521;DHT22;8373;48.110;11.522;2022-10-16T06:33:53;15.80;91.40
16521;DHT22;8373;48.110;11.522;2022-10-16T06:36:22;15.80;91.50
16521;DHT22;8373;48.110;11.522;2022-10-16T06:38:50;15.90;91.50
16521;DHT22;8373;48.110;11.522;2022-10-16T06:41:19;15.90;91.40
16521;DHT22;8373;48.110;11.522;2022-10-16T06:43:47;16.10;91.50
16521;DHT22;8373;48.110;11.522;2022-10-16T06:46:16;16.20;91.10
16521;DHT22;8373;48.110;11.522;2022-10-16T06:48:43;16.20;90.90
16521;DHT22;8373;48.110;11.522;2022-10-16T06:51:12;16.30;90.90
16521;DHT22;8373;48.110;11.522;2022-10-16T06:53:41;16.30;90.70
16521;DHT22;8373;48.110;11.522;2022-10-16T06:56:10;16.30;90.70
16521;DHT22;8373;48.110;11.522;2022-10-16T06:58:38;16.40;90.50
16521;DHT22;8373;48.110;11.522;2022-10-16T07:01:05;16.30;90.30
16521;DHT22;8373;48.110;11.522;2022-10-16T07:03:33;16.40;90.50
16521;DHT22;8373;48.110;11.522;2022-10-16T07:06:02;16.30;90.40
16521;DHT22;8373;48.110;11.522;2022-10-16T07:08:31;16.40;90.40
16521;DHT22;8373;48.110;11.522;2022-10-16T07:11:00;16.40;90.30
16521;DHT22;8373;48.110;11.522;2022-10-16T07:13:27;16.50;90.40
16521;DHT22;8373;48.110;11.522;2022-10-16T07:15:54;16.70;90.20
16521;DHT22;8373;48.110;11.522;2022-10-16T07:18:21;16.90;90.40
16521;DHT22;8373;48.110;11.522;2022-10-16T07:20:52;17.20;90.40
16521;DHT22;8373;48.110;11.522;2022-10-16T07:23:19;17.40;89.70
16521;DHT22;8373;48.110;11.522;2022-10-16T07:25:52;17.60;88.20
16521;DHT22;8373;48.110;11.522;2022-10-16T07:28:21;17.70;88.60
16521;DHT22;8373;48.110;11.522;2022-10-16T07:30:48;18.00;87.90
16521;DHT22;8373;48.110;11.522;2022-10-16T07:33:15;18.20;87.00
16521;DHT22;8373;48.110;11.522;2022-10-16T07:35:48;18.40;85.70
16521;DHT22;8373;48.110;11.522;2022-10-16T07:38:15;18.40;84.10
16521;DHT22;8373;48.110;11.522;2022-10-16T07:40:42;18.40;83.60
16521;DHT22;8373;48.110;11.522;2022-10-16T07:43:09;18.40;84.60
16521;DHT22;8373;48.110;11.522;2022-10-16T07:45:37;18.60;83.30
16521;DHT22;8373;48.110;11.522;2022-10-16T07:48:05;18.70;83.00
16521;DHT22;8373;48.110;11.522;2022-10-16T07:50:32;18.80;82.30
16521;DHT22;8373;48.110;11.522;2022-10-16T07:52:58;19.10;82.50
16521;DHT22;8373;48.110;11.522;2022-10-16T07:55:25;19.10;80.30
16521;DHT22;8373;48.110;11.522;2022-10-16T07:57:52;19.10;80.80
16521;DHT22;8373;48.110;11.522;2022-10-16T08:00:19;19.20;80.70
16521;DHT22;8373;48.110;11.522;2022-10-16T08:02:47;19.20;80.40
16521;DHT22;8373;48.110;11.522;2022-10-16T08:05:14;19.30;80.20
16521;DHT22;8373;48.110;11.522;2022-10-16T08:07:40;19.40;79.20
16521;DHT22;8373;48.110;11.522;2022-10-16T08:10:09;19.70;77.60
16521;DHT22;8373;48.110;11.522;2022-10-16T08:12:37;19.90;76.30
16521;DHT22;8373;48.110;11.522;2022-10-16T08:15:05;20.40;76.40
16521;DHT22;8373;48.110;11.522;2022-10-16T08:17:32;20.90;73.60
16521;DHT22;8373;48.110;11.522;2022-10-16T08:20:00;21.50;73.30
16521;DHT22;8373;48.110;11.522;2022-10-16T08:22:27;22.00;69.20
16521;DHT22;8373;48.110;11.522;2022-10-16T08:24:54;22.40;66.90
16521;DHT22;8373;48.110;11.522;2022-10-16T08:27:21;22.90;65.30
16521;DHT22;8373;48.110;11.522;2022-10-16T08:29:48;23.70;63.90
16521;DHT22;8373;48.110;11.522;2022-10-16T08:32:16;24.60;60.50
16521;DHT22;8373;48.110;11.522;2022-10-16T08:34:43;25.20;58.50
16521;DHT22;8373;48.110;11.522;2022-10-16T08:37:11;26.00;56.40
16521;DHT22;8373;48.110;11.522;2022-10-16T08:39:39;27.10;54.90
16521;DHT22;8373;48.110;11.522;2022-10-16T08:42:14;28.40;52.10
16521;DHT22;8373;48.110;11.522;2022-10-16T08:45:07;29.20;47.50
16521;DHT22;8373;48.110;11.522;2022-10-16T08:47:45;30.30;43.90
16521;DHT22;8373;48.110;11.522;2022-10-16T08:50:21;31.70;41.50
16521;DHT22;8373;48.110;11.522;2022-10-16T08:52:51;32.90;39.60
16521;DHT22;8373;48.110;11.522;2022-10-16T08:55:30;34.10;36.50
16521;DHT22;8373;48.110;11.522;2022-10-16T08:57:58;34.70;34.80
16521;DHT22;8373;48.110;11.522;2022-10-16T09:00:25;35.70;33.40
16521;DHT22;8373;48.110;11.522;2022-10-16T09:02:59;37.00;31.30
16521;DHT22;8373;48.110;11.522;2022-10-16T09:05:53;37.90;30.50
16521;DHT22;8373;48.110;11.522;2022-10-16T09:08:29;38.90;28.50
16521;DHT22;8373;48.110;11.522;2022-10-16T09:11:05;38.00;28.20
16521;DHT22;8373;48.110;11.522;2022-10-16T09:13:39;38.60;28.30
16521;DHT22;8373;48.110;11.522;2022-10-16T09:16:16;39.50;27.80
16521;DHT22;8373;48.110;11.522;2022-10-16T09:18:51;40.80;27.50
16521;DHT22;8373;48.110;11.522;2022-10-16T09:21:23;42.00;25.70
16521;DHT22;8373;48.110;11.522;2022-10-16T09:23:54;42.00;24.40
16521;DHT22;8373;48.110;11.522;2022-10-16T09:26:23;42.90;25.00
16521;DHT22;8373;48.110;11.522;2022-10-16T09:28:52;43.50;23.90
16521;DHT22;8373;48.110;11.522;2022-10-16T09:31:20;42.70;23.30
16521;DHT22;8373;48.110;11.522;2022-10-16T09:33:52;42.50;23.90
16521;DHT22;8373;48.110;11.522;2022-10-16T09:36:20;43.20;24.00
16521;DHT22;8373;48.110;11.522;2022-10-16T09:38:48;43.30;23.30
16521;DHT22;8373;48.110;11.522;2022-10-16T09:41:19;43.30;23.40
16521;DHT22;8373;48.110;11.522;2022-10-16T09:43:49;44.50;23.10
16521;DHT22;8373;48.110;11.522;2022-10-16T09:46:25;45.40;21.90
16521;DHT22;8373;48.110;11.522;2022-10-16T09:48:54;44.70;22.20
16521;DHT22;8373;48.110;11.522;2022-10-16T09:51:24;45.40;22.20
16521;DHT22;8373;48.110;11.522;2022-10-16T09:53:55;46.30;21.70
16521;DHT22;8373;48.110;11.522;2022-10-16T09:56:25;46.10;20.90
16521;DHT22;8373;48.110;11.522;2022-10-16T09:58:54;45.10;21.20
16521;DHT22;8373;48.110;11.522;2022-10-16T10:01:23;45.10;21.50
16521;DHT22;8373;48.110;11.522;2022-10-16T10:03:56;45.60;21.60
16521;DHT22;8373;48.110;11.522;2022-10-16T10:06:28;46.00;21.40
16521;DHT22;8373;48.110;11.522;2022-10-16T10:08:58;47.00;21.00
16521;DHT22;8373;48.110;11.522;2022-10-16T10:11:48;48.10;21.10
16521;DHT22;8373;48.110;11.522;2022-10-16T10:14:20;49.10;20.40
16521;DHT22;8373;48.110;11.522;2022-10-16T10:16:48;49.60;19.40
16521;DHT22;8373;48.110;11.522;2022-10-16T10:19:16;49.70;18.20
16521;DHT22;8373;48.110;11.522;2022-10-16T10:21:44;49.00;18.80
16521;DHT22;8373;48.110;11.522;2022-10-16T10:24:12;49.30;18.70
16521;DHT22;8373;48.110;11.522;2022-10-16T10:26:44;49.50;18.30
16521;DHT22;8373;48.110;11.522;2022-10-16T10:29:20;49.70;17.80
16521;DHT22;8373;48.110;11.522;2022-10-16T10:31:56;48.80;17.30
16521;DHT22;8373;48.110;11.522;2022-10-16T10:34:40;49.80;17.60
16521;DHT22;8373;48.110;11.522;2022-10-16T10:37:25;49.90;17.10
16521;DHT22;8373;48.110;11.522;2022-10-16T10:40:06;49.90;16.80
16521;DHT22;8373;48.110;11.522;2022-10-16T10:42:42;49.90;16.30
16521;DHT22;8373;48.110;11.522;2022-10-16T10:45:26;51.10;17.30
16521;DHT22;8373;48.110;11.522;2022-10-16T10:48:07;52.10;16.30
16521;DHT22;8373;48.110;11.522;2022-10-16T10:50:43;53.10;16.20
16521;DHT22;8373;48.110;11.522;2022-10-16T10:53:24;53.50;15.50
16521;DHT22;8373;48.110;11.522;2022-10-16T10:56:00;53.30;15.70
16521;DHT22;8373;48.110;11.522;2022-10-16T10:59:02;54.10;15.20
16521;DHT22;8373;48.110;11.522;2022-10-16T11:01:40;54.30;14.70
16521;DHT22;8373;48.110;11.522;2022-10-16T11:04:25;54.10;14.00
16521;DHT22;8373;48.110;11.522;2022-10-16T11:06:59;53.30;14.20
16521;DHT22;8373;48.110;11.522;2022-10-16T11:09:31;53.60;14.30
16521;DHT22;8373;48.110;11.522;2022-10-16T11:12:02;53.00;14.40
16521;DHT22;8373;48.110;11.522;2022-10-16T11:14:35;51.30;14.30
16521;DHT22;8373;48.110;11.522;2022-10-16T11:17:08;51.30;14.70
16521;DHT22;8373;48.110;11.522;2022-10-16T11:19:43;51.60;14.80
16521;DHT22;8373;48.110;11.522;2022-10-16T11:22:15;51.10;14.30
16521;DHT22;8373;48.110;11.522;2022-10-16T11:24:49;51.30;15.00
16521;DHT22;8373;48.110;11.522;2022-10-16T11:27:33;51.10;14.50
16521;DHT22;8373;48.110;11.522;2022-10-16T11:30:03;51.20;14.80
16521;DHT22;8373;48.110;11.522;2022-10-16T11:32:39;52.10;14.90
16521;DHT22;8373;48.110;11.522;2022-10-16T11:35:15;52.40;14.50
16521;DHT22;8373;48.110;11.522;2022-10-16T11:37:46;51.60;14.30
16521;DHT22;8373;48.110;11.522;2022-10-16T11:40:22;51.10;14.30
16521;DHT22;8373;48.110;11.522;2022-10-16T11:42:54;51.20;14.30
16521;DHT22;8373;48.110;11.522;2022-10-16T11:45:28;51.10;14.30
16521;DHT22;8373;48.110;11.522;2022-10-16T11:48:02;51.20;14.20
16521;DHT22;8373;48.110;11.522;2022-10-16T11:50:35;51.40;13.70
16521;DHT22;8373;48.110;11.522;2022-10-16T11:53:11;51.20;14.50
16521;DHT22;8373;48.110;11.522;2022-10-16T11:55:41;51.50;14.50
16521;DHT22;8373;48.110;11.522;2022-10-16T11:58:15;52.10;14.30
16521;DHT22;8373;48.110;11.522;2022-10-16T12:00:50;52.50;13.80
16521;DHT22;8373;48.110;11.522;2022-10-16T12:03:24;52.30;14.20
16521;DHT22;8373;48.110;11.522;2022-10-16T12:06:05;51.80;14.30
16521;DHT22;8373;48.110;11.522;2022-10-16T12:08:34;51.40;14.30
16521;DHT22;8373;48.110;11.522;2022-10-16T12:11:09;50.50;14.00
16521;DHT22;8373;48.110;11.522;2022-10-16T12:13:47;50.10;14.60
16521;DHT22;8373;48.110;11.522;2022-10-16T12:16:22;50.40;14.80
16521;DHT22;8373;48.110;11.522;2022-10-16T12:19:10;49.30;15.10
16521;DHT22;8373;48.110;11.522;2022-10-16T12:21:37;48.50;15.80
16521;DHT22;8373;48.110;11.522;2022-10-16T12:24:05;47.00;16.10
16521;DHT22;8373;48.110;11.522;2022-10-16T12:26:34;45.70;16.70
16521;DHT22;8373;48.110;11.522;2022-10-16T12:29:14;44.60;17.60
16521;DHT22;8373;48.110;11.522;2022-10-16T12:31:47;43.20;18.80
16521;DHT22;8373;48.110;11.522;2022-10-16T12:34:21;41.90;19.80
16521;DHT22;8373;48.110;11.522;2022-10-16T12:36:49;41.00;21.00
16521;DHT22;8373;48.110;11.522;2022-10-16T12:39:21;40.20;21.40
16521;DHT22;8373;48.110;11.522;2022-10-16T12:42:00;39.40;26.10
16521;DHT22;8373;48.110;11.522;2022-10-16T12:44:32;38.10;25.20
16521;DHT22;8373;48.110;11.522;2022-10-16T12:47:01;37.00;29.10
16521;DHT22;8373;48.110;11.522;2022-10-16T12:49:36;36.20;29.50
16521;DHT22;8373;48.110;11.522;2022-10-16T12:52:04;35.30;27.80
16521;DHT22;8373;48.110;11.522;2022-10-16T12:54:36;34.90;32.80
16521;DHT22;8373;48.110;11.522;2022-10-16T12:57:26;34.30;28.80
16521;DHT22;8373;48.110;11.522;2022-10-16T13:00:03;34.10;34.90
16521;DHT22;8373;48.110;11.522;2022-10-16T13:02:49;33.70;35.60
16521;DHT22;8373;48.110;11.522;2022-10-16T13:05:37;33.70;33.70
16521;DHT22;8373;48.110;11.522;2022-10-16T13:08:24;33.30;31.90
16521;DHT22;8373;48.110;11.522;2022-10-16T13:11:02;33.10;36.10
16521;DHT22;8373;48.110;11.522;2022-10-16T13:13:49;32.70;31.90
16521;DHT22;8373;48.110;11.522;2022-10-16T13:16:21;32.40;35.70
16521;DHT22;8373;48.110;11.522;2022-10-16T13:18:59;32.30;37.30
16521;DHT22;8373;48.110;11.522;2022-10-16T13:21:39;32.20;38.30
16521;DHT22;8373;48.110;11.522;2022-10-16T13:24:18;31.80;31.90
16521;DHT22;8373;48.110;11.522;2022-10-16T13:26:53;31.60;39.20
16521;DHT22;8373;48.110;11.522;2022-10-16T13:29:22;31.30;39.70
16521;DHT22;8373;48.110;11.522;2022-10-16T13:31:49;31.10;40.30
16521;DHT22;8373;48.110;11.522;2022-10-16T13:34:20;30.90;39.60
16521;DHT22;8373;48.110;11.522;2022-10-16T13:36:50;30.80;40.90
16521;DHT22;8373;48.110;11.522;2022-10-16T13:39:22;30.50;41.30
16521;DHT22;8373;48.110;11.522;2022-10-16T13:42:00;30.30;41.50
16521;DHT22;8373;48.110;11.522;2022-10-16T13:44:33;30.20;42.00
16521;DHT22;8373;48.110;11.522;2022-10-16T13:47:02;30.10;42.20
16521;DHT22;8373;48.110;11.522;2022-10-16T13:49:29;29.90;42.00
16521;DHT22;8373;48.110;11.522;2022-10-16T13:51:59;29.80;42.10
16521;DHT22;8373;48.110;11.522;2022-10-16T13:54:27;29.70;42.10
16521;DHT22;8373;48.110;11.522;2022-10-16T13:56:55;29.60;42.70
16521;DHT22;8373;48.110;11.522;2022-10-16T13:59:24;29.50;40.40
16521;DHT22;8373;48.110;11.522;2022-10-16T14:01:52;29.50;41.90
16521;DHT22;8373;48.110;11.522;2022-10-16T14:04:21;29.30;43.00
16521;DHT22;8373;48.110;11.522;2022-10-16T14:06:50;29.10;43.40
16521;DHT22;8373;48.110;11.522;2022-10-16T14:09:24;29.00;42.50
16521;DHT22;8373;48.110;11.522;2022-10-16T14:11:53;28.90;43.90
16521;DHT22;8373;48.110;11.522;2022-10-16T14:14:21;28.80;42.20
16521;DHT22;8373;48.110;11.522;2022-10-16T14:16:49;28.70;42.90
16521;DHT22;8373;48.110;11.522;2022-10-16T14:19:20;28.60;44.50
16521;DHT22;8373;48.110;11.522;2022-10-16T14:21:49;28.40;42.40
16521;DHT22;8373;48.110;11.522;2022-10-16T14:24:27;28.30;44.60
16521;DHT22;8373;48.110;11.522;2022-10-16T14:26:58;28.20;41.80
16521;DHT22;8373;48.110;11.522;2022-10-16T14:29:26;28.10;44.80
16521;DHT22;8373;48.110;11.522;2022-10-16T14:31:55;28.00;45.40
16521;DHT22;8373;48.110;11.522;2022-10-16T14:34:28;27.90;45.70
16521;DHT22;8373;48.110;11.522;2022-10-16T14:36:57;27.80;45.90
16521;DHT22;8373;48.110;11.522;2022-10-16T14:39:28;27.70;46.30
16521;DHT22;8373;48.110;11.522;2022-10-16T14:41:57;27.50;46.40
16521;DHT22;8373;48.110;11.522;2022-10-16T14:44:28;27.50;46.70
16521;DHT22;8373;48.110;11.522;2022-10-16T14:46:56;27.40;46.90
16521;DHT22;8373;48.110;11.522;2022-10-16T14:49:25;27.30;47.20
16521;DHT22;8373;48.110;11.522;2022-10-16T14:51:53;27.20;47.40
16521;DHT22;8373;48.110;11.522;2022-10-16T14:54:21;27.10;47.50
16521;DHT22;8373;48.110;11.522;2022-10-16T14:56:51;27.00;47.80
16521;DHT22;8373;48.110;11.522;2022-10-16T14:59:22;26.90;48.10
16521;DHT22;8373;48.110;11.522;2022-10-16T15:01:52;26.80;48.40
16521;DHT22;8373;48.110;11.522;2022-10-16T15:04:19;26.70;48.10
16521;DHT22;8373;48.110;11.522;2022-10-16T15:06:46;26.70;48.10
16521;DHT22;8373;48.110;11.522;2022-10-16T15:09:13;26.60;48.90
16521;DHT22;8373;48.110;11.522;2022-10-16T15:11:40;26.60;49.20
16521;DHT22;8373;48.110;11.522;2022-10-16T15:14:11;26.50;47.60
16521;DHT22;8373;48.110;11.522;2022-10-16T15:16:38;26.50;46.00
16521;DHT22;8373;48.110;11.522;2022-10-16T15:19:06;26.60;44.40
16521;DHT22;8373;48.110;11.522;2022-10-16T15:21:33;26.60;44.50
16521;DHT22;8373;48.110;11.522;2022-10-16T15:24:00;26.60;42.70
16521;DHT22;8373;48.110;11.522;2022-10-16T15:26:29;26.50;42.00
16521;DHT22;8373;48.110;11.522;2022-10-16T15:28:56;26.50;41.90
16521;DHT22;8373;48.110;11.522;2022-10-16T15:31:25;26.50;42.30
16521;DHT22;8373;48.110;11.522;2022-10-16T15:33:53;26.50;43.10
16521;DHT22;8373;48.110;11.522;2022-10-16T15:36:27;26.40;43.80
16521;DHT22;8373;48.110;11.522;2022-10-16T15:38:55;26.40;45.30
16521;DHT22;8373;48.110;11.522;2022-10-16T15:41:22;26.20;45.60
16521;DHT22;8373;48.110;11.522;2022-10-16T15:43:49;26.10;44.80
16521;DHT22;8373;48.110;11.522;2022-10-16T15:46:19;26.10;44.30
16521;DHT22;8373;48.110;11.522;2022-10-16T15:48:47;26.00;43.80
16521;DHT22;8373;48.110;11.522;2022-10-16T15:51:15;25.90;43.80
16521;DHT22;8373;48.110;11.522;2022-10-16T15:53:42;25.90;44.40
16521;DHT22;8373;48.110;11.522;2022-10-16T15:56:12;25.80;44.90
16521;DHT22;8373;48.110;11.522;2022-10-16T15:58:40;25.70;45.20
16521;DHT22;8373;48.110;11.522;2022-10-16T16:01:07;25.70;46.00
16521;DHT22;8373;48.110;11.522;2022-10-16T16:03:35;25.60;45.70
16521;DHT22;8373;48.110;11.522;2022-10-16T16:06:05;25.50;46.10
16521;DHT22;8373;48.110;11.522;2022-10-16T16:08:33;25.50;46.40
16521;DHT22;8373;48.110;11.522;2022-10-16T16:11:01;25.40;47.20
16521;DHT22;8373;48.110;11.522;2022-10-16T16:13:28;25.30;47.40
16521;DHT22;8373;48.110;11.522;2022-10-16T16:15:56;25.20;47.50
16521;DHT22;8373;48.110;11.522;2022-10-16T16:18:23;25.20;47.80
16521;DHT22;8373;48.110;11.522;2022-10-16T16:20:50;25.10;48.00
16521;DHT22;8373;48.110;11.522;2022-10-16T16:23:19;25.00;48.30
16521;DHT22;8373;48.110;11.522;2022-10-16T16:26:03;25.00;48.60
16521;DHT22;8373;48.110;11.522;2022-10-16T16:28:30;24.90;48.70
16521;DHT22;8373;48.110;11.522;2022-10-16T16:30:57;24.80;48.90
16521;DHT22;8373;48.110;11.522;2022-10-16T16:33:23;24.80;49.40
16521;DHT22;8373;48.110;11.522;2022-10-16T16:35:50;24.70;49.70
16521;DHT22;8373;48.110;11.522;2022-10-16T16:38:23;24.60;50.50
16521;DHT22;8373;48.110;11.522;2022-10-16T16:40:50;24.50;50.40
16521;DHT22;8373;48.110;11.522;2022-10-16T16:43:18;24.50;50.50
16521;DHT22;8373;48.110;11.522;2022-10-16T16:45:45;24.40;50.60
16521;DHT22;8373;48.110;11.522;2022-10-16T16:48:12;24.40;51.00
16521;DHT22;8373;48.110;11.522;2022-10-16T16:50:38;24.30;51.50
16521;DHT22;8373;48.110;11.522;2022-10-16T16:53:05;24.30;51.40
16521;DHT22;8373;48.110;11.522;2022-10-16T16:55:34;24.20;51.40
16521;DHT22;8373;48.110;11.522;2022-10-16T16:58:01;24.20;51.60
16521;DHT22;8373;48.110;11.522;2022-10-16T17:00:30;24.10;51.60
16521;DHT22;8373;48.110;11.522;2022-10-16T17:02:57;24.10;51.80
16521;DHT22;8373;48.110;11.522;2022-10-16T17:05:24;24.00;51.90
16521;DHT22;8373;48.110;11.522;2022-10-16T17:07:51;23.90;52.10
16521;DHT22;8373;48.110;11.522;2022-10-16T17:10:18;23.90;52.40
16521;DHT22;8373;48.110;11.522;2022-10-16T17:12:46;23.80;52.50
16521;DHT22;8373;48.110;11.522;2022-10-16T17:15:14;23.80;53.00
16521;DHT22;8373;48.110;11.522;2022-10-16T17:17:41;23.70;53.40
16521;DHT22;8373;48.110;11.522;2022-10-16T17:20:09;23.70;53.40
16521;DHT22;8373;48.110;11.522;2022-10-16T17:22:37;23.60;53.70
16521;DHT22;8373;48.110;11.522;2022-10-16T17:25:05;23.50;53.80
16521;DHT22;8373;48.110;11.522;2022-10-16T17:27:33;23.50;54.00
16521;DHT22;8373;48.110;11.522;2022-10-16T17:30:03;23.40;54.50
16521;DHT22;8373;48.110;11.522;2022-10-16T17:32:30;23.30;54.90
16521;DHT22;8373;48.110;11.522;2022-10-16T17:34:57;23.30;55.30
16521;DHT22;8373;48.110;11.522;2022-10-16T17:37:24;23.30;55.60
16521;DHT22;8373;48.110;11.522;2022-10-16T17:39:51;23.20;56.00
16521;DHT22;8373;48.110;11.522;2022-10-16T17:42:18;23.20;56.30
16521;DHT22;8373;48.110;11.522;2022-10-16T17:44:45;23.10;56.20
16521;DHT22;8373;48.110;11.522;2022-10-16T17:47:14;23.10;56.50
16521;DHT22;8373;48.110;11.522;2022-10-16T17:49:41;23.00;56.60
16521;DHT22;8373;48.110;11.522;2022-10-16T17:52:08;22.90;56.60
16521;DHT22;8373;48.110;11.522;2022-10-16T17:54:35;22.90;56.80
16521;DHT22;8373;48.110;11.522;2022-10-16T17:57:01;22.80;57.20
16521;DHT22;8373;48.110;11.522;2022-10-16T17:59:28;22.80;57.40
16521;DHT22;8373;48.110;11.522;2022-10-16T18:01:55;22.70;57.40
16521;DHT22;8373;48.110;11.522;2022-10-16T18:04:24;22.70;57.70
16521;DHT22;8373;48.110;11.522;2022-10-16T18:06:51;22.60;57.70
16521;DHT22;8373;48.110;11.522;2022-10-16T18:09:20;22.60;58.00
16521;DHT22;8373;48.110;11.522;2022-10-16T18:11:48;22.50;58.10
16521;DHT22;8373;48.110;11.522;2022-10-16T18:14:20;22.40;58.30
16521;DHT22;8373;48.110;11.522;2022-10-16T18:16:47;22.30;58.50
16521;DHT22;8373;48.110;11.522;2022-10-16T18:22:08;22.20;59.30
16521;DHT22;8373;48.110;11.522;2022-10-16T18:24:35;22.10;60.10
16521;DHT22;8373;48.110;11.522;2022-10-16T18:27:02;22.10;60.80
16521;DHT22;8373;48.110;11.522;2022-10-16T18:29:30;22.00;61.30
16521;DHT22;8373;48.110;11.522;2022-10-16T18:31:56;22.00;61.50
16521;DHT22;8373;48.110;11.522;2022-10-16T18:34:23;22.00;61.80
16521;DHT22;8373;48.110;11.522;2022-10-16T18:36:52;21.90;62.10
16521;DHT22;8373;48.110;11.522;2022-10-16T18:39:20;21.90;62.60
16521;DHT22;8373;48.110;11.522;2022-10-16T18:41:49;21.80;62.70
16521;DHT22;8373;48.110;11.522;2022-10-16T18:44:19;21.80;62.00
16521;DHT22;8373;48.110;11.522;2022-10-16T18:46:46;21.80;62.00
16521;DHT22;8373;48.110;11.522;2022-10-16T18:49:13;21.80;62.40
16521;DHT22;8373;48.110;11.522;2022-10-16T18:51:40;21.80;62.80
16521;DHT22;8373;48.110;11.522;2022-10-16T18:54:10;21.70;63.00
16521;DHT22;8373;48.110;11.522;2022-10-16T18:56:39;21.60;63.50
16521;DHT22;8373;48.110;11.522;2022-10-16T18:59:07;21.60;64.10
16521;DHT22;8373;48.110;11.522;2022-10-16T19:01:36;21.60;64.20
16521;DHT22;8373;48.110;11.522;2022-10-16T19:04:06;21.50;64.70
16521;DHT22;8373;48.110;11.522;2022-10-16T19:06:35;21.40;65.00
16521;DHT22;8373;48.110;11.522;2022-10-16T19:09:03;21.40;65.20
16521;DHT22;8373;48.110;11.522;2022-10-16T19:11:31;21.40;65.00
16521;DHT22;8373;48.110;11.522;2022-10-16T19:13:59;21.30;65.00
16521;DHT22;8373;48.110;11.522;2022-10-16T19:16:28;21.30;65.00
16521;DHT22;8373;48.110;11.522;2022-10-16T19:18:57;21.20;64.80
16521;DHT22;8373;48.110;11.522;2022-10-16T19:21:26;21.20;65.50
16521;DHT22;8373;48.110;11.522;2022-10-16T19:23:54;21.20;65.60
16521;DHT22;8373;48.110;11.522;2022-10-16T19:26:22;21.10;65.50
16521;DHT22;8373;48.110;11.522;2022-10-16T19:28:50;21.10;65.70
16521;DHT22;8373;48.110;11.522;2022-10-16T19:31:21;21.00;66.00
16521;DHT22;8373;48.110;11.522;2022-10-16T19:33:51;21.00;66.50
16521;DHT22;8373;48.110;11.522;2022-10-16T19:36:19;20.90;66.80
16521;DHT22;8373;48.110;11.522;2022-10-16T19:38:51;20.90;66.90
16521;DHT22;8373;48.110;11.522;2022-10-16T19:41:18;20.90;67.00
16521;DHT22;8373;48.110;11.522;2022-10-16T19:43:45;20.90;67.00
16521;DHT22;8373;48.110;11.522;2022-10-16T19:46:14;20.90;67.20
16521;DHT22;8373;48.110;11.522;2022-10-16T19:48:44;20.80;67.30
16521;DHT22;8373;48.110;11.522;2022-10-16T19:51:14;20.70;67.60